CJD4 weather

CLOSED Hamlin Airport
North Battleford, Saskatchewan, Canada

Public forecast

Using degrees Celsius for public forecast. Weather courtesy of forecast.io.

METAR (pilot weather report)

Closest report is North Battleford Airport, 6.8 nm (12.7 km) SSE. Retrieved 2019/04/19 23:00 UTC (51 minutes ago):

CYQW 192300Z AUTO 31016G22KT 9SM CLR 15/M03 A2964 RMK SLP046 DENSITY ALT 2500FT

TAF (pilot weather forecast)

Closest forecast is North Battleford Airport, 6.8 nm (12.7 km) SSE. Retrieved 2019/04/19 18:42 UTC (5 hours ago):

TAF CYQW 191738Z 1918/2006 32018G28KT P6SM SCT060 BECMG 2001/2003 31012KT RMK FCST BASED ON AUTO OBS. NXT FCST BY 200000Z